createdAt,value
2022-08-05T00:00:00.355Z,24.21
2022-08-05T00:02:29.480Z,24.19
2022-08-05T00:04:57.280Z,24.10
2022-08-05T00:07:59.169Z,24.05
2022-08-05T00:10:12.485Z,24.00
2022-08-05T00:12:55.833Z,23.92
2022-08-05T00:15:55.015Z,23.76
2022-08-05T00:18:21.858Z,23.80
2022-08-05T00:20:50.499Z,23.78
2022-08-05T00:23:44.725Z,23.85
2022-08-05T00:26:06.396Z,23.81
2022-08-05T00:28:34.555Z,23.77
2022-08-05T00:31:04.717Z,23.75
2022-08-05T00:34:56.560Z,23.63
2022-08-05T00:37:10.602Z,23.69
2022-08-05T00:39:13.701Z,23.55
2022-08-05T00:41:55.103Z,23.67
2022-08-05T00:44:23.287Z,23.58
2022-08-05T00:47:02.096Z,23.61
2022-08-05T00:49:51.053Z,23.62
2022-08-05T00:52:28.850Z,23.43
2022-08-05T00:54:56.719Z,23.45
2022-08-05T00:57:25.415Z,23.41
2022-08-05T01:00:11.005Z,23.38
2022-08-05T01:02:38.873Z,23.29
2022-08-05T01:05:10.109Z,23.28
2022-08-05T01:07:37.989Z,23.25
2022-08-05T01:10:30.330Z,23.23
2022-08-05T01:13:13.091Z,23.20
2022-08-05T01:15:54.882Z,23.10
2022-08-05T01:18:29.225Z,23.13
2022-08-05T01:21:12.343Z,22.95
2022-08-05T01:24:13.138Z,22.77
2022-08-05T01:26:57.779Z,22.72
2022-08-05T01:29:32.316Z,22.52
2022-08-05T01:32:06.677Z,22.40
2022-08-05T01:34:44.756Z,22.41
2022-08-05T01:37:24.707Z,22.40
2022-08-05T01:39:58.937Z,22.36
2022-08-05T01:42:28.674Z,22.31
2022-08-05T01:45:00.103Z,22.40
2022-08-05T01:47:39.578Z,22.46
2022-08-05T01:50:14.293Z,22.47
2022-08-05T01:52:45.016Z,22.52
2022-08-05T01:55:21.510Z,22.63
2022-08-05T01:58:10.897Z,22.73
2022-08-05T02:00:45.195Z,22.72
2022-08-05T02:03:24.247Z,22.67
2022-08-05T02:05:59.872Z,22.79
2022-08-05T02:08:31.160Z,22.79
2022-08-05T02:11:03.402Z,22.82
2022-08-05T02:13:53.226Z,22.76
2022-08-05T02:16:27.506Z,22.82
2022-08-05T02:18:59.506Z,22.76
2022-08-05T02:21:43.455Z,22.77
2022-08-05T02:24:19.271Z,22.85
2022-08-05T02:26:54.821Z,22.75
2022-08-05T02:29:58.065Z,22.76
2022-08-05T02:32:19.951Z,22.84
2022-08-05T02:34:54.954Z,22.88
2022-08-05T02:37:24.905Z,22.98
2022-08-05T02:39:53.403Z,22.98
2022-08-05T02:42:26.014Z,22.97
2022-08-05T02:44:56.861Z,22.93
2022-08-05T02:47:58.737Z,22.97
2022-08-05T02:50:18.125Z,22.95
2022-08-05T02:52:47.757Z,22.88
2022-08-05T02:55:17.583Z,22.91
2022-08-05T02:58:10.418Z,22.93
2022-08-05T03:00:41.146Z,22.87
2022-08-05T03:03:17.859Z,22.90
2022-08-05T03:06:55.333Z,22.80
2022-08-05T03:08:36.941Z,22.82
2022-08-05T03:11:57.133Z,22.72
2022-08-05T03:14:03.231Z,22.65
2022-08-05T03:16:32.033Z,22.59
2022-08-05T03:19:01.410Z,22.64
2022-08-05T03:21:41.697Z,22.53
2022-08-05T03:24:17.892Z,22.54
2022-08-05T03:26:57.472Z,22.43
2022-08-05T03:29:45.666Z,22.42
2022-08-05T03:32:14.225Z,22.38
2022-08-05T03:34:50.632Z,22.31
2022-08-05T03:37:20.301Z,22.21
2022-08-05T03:40:01.134Z,22.15
2022-08-05T03:42:32.436Z,22.25
2022-08-05T03:45:21.891Z,22.22
2022-08-05T03:47:50.949Z,22.15
2022-08-05T03:50:21.142Z,22.08
2022-08-05T03:55:52.518Z,22.11
2022-08-05T03:56:04.663Z,21.88
2022-08-05T03:58:41.179Z,21.88
2022-08-05T04:01:11.242Z,21.90
2022-08-05T04:04:10.276Z,21.86
2022-08-05T04:06:34.768Z,21.83
2022-08-05T04:09:05.844Z,21.76
2022-08-05T04:11:47.271Z,21.83
2022-08-05T04:14:17.879Z,21.82
2022-08-05T04:16:45.927Z,21.74
2022-08-05T04:19:13.810Z,21.68
2022-08-05T04:22:09.747Z,21.57
2022-08-05T04:24:30.707Z,21.53
2022-08-05T04:26:58.683Z,21.43
2022-08-05T04:29:28.486Z,21.44
2022-08-05T04:31:57.478Z,21.48
2022-08-05T04:34:32.322Z,21.38
2022-08-05T04:37:03.508Z,21.37
2022-08-05T04:39:31.471Z,21.31
2022-08-05T04:41:59.900Z,21.21
2022-08-05T04:44:29.846Z,21.29
2022-08-05T04:46:58.656Z,21.37
2022-08-05T04:49:38.644Z,21.38
2022-08-05T04:52:15.576Z,21.47
2022-08-05T04:54:43.181Z,21.48
2022-08-05T04:57:10.892Z,21.54
2022-08-05T04:59:40.816Z,21.50
2022-08-05T05:02:41.457Z,21.48
2022-08-05T05:05:02.174Z,21.49
2022-08-05T05:07:35.332Z,21.60
2022-08-05T05:10:06.335Z,21.66
2022-08-05T05:12:34.220Z,21.62
2022-08-05T05:15:05.403Z,21.66
2022-08-05T05:17:55.521Z,21.58
2022-08-05T05:20:28.851Z,21.62
2022-08-05T05:22:58.555Z,21.57
2022-08-05T05:25:32.560Z,21.60
2022-08-05T05:28:08.581Z,21.61
2022-08-05T05:30:37.527Z,21.49
2022-08-05T05:33:14.197Z,21.61
2022-08-05T05:35:45.136Z,21.67
2022-08-05T05:38:22.415Z,21.65
2022-08-05T05:40:55.622Z,21.64
2022-08-05T05:43:54.645Z,21.69
2022-08-05T05:46:15.850Z,21.72
2022-08-05T05:48:49.681Z,21.76
2022-08-05T05:51:22.854Z,21.79
2022-08-05T05:53:57.600Z,21.78
2022-08-05T05:56:32.883Z,21.74
2022-08-05T05:59:14.945Z,21.62
2022-08-05T06:01:57.492Z,21.64
2022-08-05T06:04:25.679Z,21.80
2022-08-05T06:06:56.381Z,21.81
2022-08-05T06:10:00.253Z,21.59
2022-08-05T06:12:18.057Z,21.60
2022-08-05T06:14:47.193Z,21.55
2022-08-05T06:17:24.246Z,21.53
2022-08-05T06:19:57.093Z,21.54
2022-08-05T06:22:29.995Z,21.60
2022-08-05T06:24:59.366Z,21.62
2022-08-05T06:28:08.925Z,21.56
2022-08-05T06:30:16.842Z,21.64
2022-08-05T06:32:47.814Z,21.60
2022-08-05T06:36:02.955Z,21.59
2022-08-05T06:38:11.212Z,21.63
2022-08-05T06:40:42.204Z,21.64
2022-08-05T06:43:58.161Z,21.68
2022-08-05T06:46:03.969Z,21.70
2022-08-05T06:48:54.639Z,21.72
2022-08-05T06:51:29.593Z,21.39
2022-08-05T06:53:57.968Z,21.39
2022-08-05T06:56:27.594Z,21.50
2022-08-05T06:58:55.300Z,21.56
2022-08-05T07:01:23.368Z,21.49
2022-08-05T07:03:55.433Z,21.49
2022-08-05T07:06:23.707Z,21.54
2022-08-05T07:08:54.745Z,21.51
2022-08-05T07:11:25.547Z,21.38
2022-08-05T07:14:15.515Z,21.21
2022-08-05T07:17:59.112Z,21.29
2022-08-05T07:22:30.114Z,21.39
2022-08-05T07:25:54.969Z,21.31
2022-08-05T07:27:58.122Z,21.23
2022-08-05T07:30:33.670Z,21.15
2022-08-05T07:33:05.460Z,20.99
2022-08-05T07:36:02.710Z,21.00
2022-08-05T07:38:32.993Z,20.85
2022-08-05T07:42:08.866Z,20.78
2022-08-05T07:43:52.039Z,20.80
2022-08-05T07:46:25.378Z,20.70
2022-08-05T07:49:01.587Z,20.74
2022-08-05T07:51:36.685Z,20.75
2022-08-05T07:54:06.280Z,20.85
2022-08-05T07:57:00.355Z,20.82
2022-08-05T07:59:38.860Z,20.87
2022-08-05T08:02:16.470Z,20.88
2022-08-05T08:04:49.681Z,20.88
2022-08-05T08:07:21.959Z,20.81
2022-08-05T08:09:50.317Z,20.78
2022-08-05T08:12:33.627Z,20.62
2022-08-05T08:15:13.954Z,20.61
2022-08-05T08:17:49.898Z,20.42
2022-08-05T08:21:00.126Z,20.49
2022-08-05T08:24:00.236Z,20.53
2022-08-05T08:25:59.771Z,20.51
2022-08-05T08:28:37.058Z,20.44
2022-08-05T08:31:14.913Z,20.64
2022-08-05T08:33:51.601Z,20.71
2022-08-05T08:36:38.800Z,20.83
2022-08-05T08:39:14.893Z,20.81
2022-08-05T08:41:51.398Z,20.59
2022-08-05T08:45:22.720Z,20.60
2022-08-05T08:47:48.093Z,20.49
2022-08-05T08:50:31.178Z,20.54
2022-08-05T08:53:11.858Z,20.56
2022-08-05T08:56:04.183Z,20.57
2022-08-05T08:58:37.660Z,20.50
2022-08-05T09:01:17.200Z,20.52
2022-08-05T09:03:46.992Z,20.54
2022-08-05T09:06:21.377Z,20.40
2022-08-05T09:08:55.646Z,20.53
2022-08-05T09:11:50.983Z,20.67
2022-08-05T09:14:57.114Z,20.52
2022-08-05T09:17:00.542Z,20.37
2022-08-05T09:19:36.303Z,20.41
2022-08-05T09:22:23.236Z,20.49
2022-08-05T09:25:01.473Z,20.59
2022-08-05T09:28:04.668Z,20.68
2022-08-05T09:30:23.445Z,20.68
2022-08-05T09:32:52.992Z,20.57
2022-08-05T09:35:26.414Z,20.56
2022-08-05T09:38:17.303Z,20.67
2022-08-05T09:40:52.585Z,20.88
2022-08-05T09:43:40.900Z,20.98
2022-08-05T09:46:27.274Z,20.92
2022-08-05T09:49:07.183Z,20.96
2022-08-05T09:51:38.480Z,21.05
2022-08-05T09:54:10.119Z,21.14
2022-08-05T09:56:38.944Z,21.16
2022-08-05T09:59:08.435Z,21.25
2022-08-05T10:01:40.237Z,21.22
2022-08-05T10:04:16.130Z,21.10
2022-08-05T10:06:58.788Z,21.09
2022-08-05T10:09:29.623Z,21.12
2022-08-05T10:12:31.080Z,21.01
2022-08-05T10:15:16.929Z,20.91
2022-08-05T10:17:56.689Z,20.95
2022-08-05T10:20:26.576Z,20.87
2022-08-05T10:22:55.650Z,20.82
2022-08-05T10:25:27.599Z,20.87
2022-08-05T10:28:13.612Z,20.87
2022-08-05T10:32:49.626Z,21.07
2022-08-05T10:33:34.204Z,20.90
2022-08-05T10:36:04.871Z,20.81
2022-08-05T10:38:34.812Z,20.90
2022-08-05T10:41:13.857Z,21.06
2022-08-05T10:43:51.806Z,21.16
2022-08-05T10:46:23.916Z,21.34
2022-08-05T10:49:00.605Z,21.46
2022-08-05T10:51:53.239Z,21.53
2022-08-05T10:54:56.766Z,21.72
2022-08-05T10:57:31.958Z,21.69
2022-08-05T11:00:19.711Z,21.78
2022-08-05T11:03:25.890Z,22.00
2022-08-05T11:06:05.777Z,22.20
2022-08-05T11:08:39.178Z,22.41
2022-08-05T11:11:44.244Z,22.44
2022-08-05T11:14:14.703Z,22.65
2022-08-05T11:16:56.066Z,22.77
2022-08-05T11:20:10.966Z,22.50
2022-08-05T11:22:42.388Z,22.72
2022-08-05T11:26:04.615Z,22.51
2022-08-05T11:28:39.127Z,22.47
2022-08-05T11:31:58.122Z,22.93
2022-08-05T11:34:37.729Z,23.22
2022-08-05T11:38:28.304Z,23.16
2022-08-05T11:40:00.711Z,23.45
2022-08-05T11:42:40.247Z,23.63
2022-08-05T11:45:14.183Z,24.00
2022-08-05T11:47:54.483Z,24.49
2022-08-05T11:50:22.773Z,24.43
2022-08-05T11:52:54.360Z,24.51
2022-08-05T11:55:32.355Z,24.70
2022-08-05T11:58:09.811Z,24.79
2022-08-05T12:00:41.577Z,24.89
2022-08-05T12:03:28.638Z,24.56
2022-08-05T12:06:06.083Z,24.06
2022-08-05T12:08:50.870Z,24.33
2022-08-05T12:11:22.634Z,24.56
2022-08-05T12:13:59.409Z,24.71
2022-08-05T12:16:34.459Z,24.84
2022-08-05T12:19:09.898Z,24.60
2022-08-05T12:21:57.801Z,24.74
2022-08-05T12:24:25.777Z,25.11
2022-08-05T12:26:54.633Z,25.10
2022-08-05T12:29:24.083Z,25.06
2022-08-05T12:31:54.358Z,25.01
2022-08-05T12:34:28.108Z,25.10
2022-08-05T12:36:57.308Z,24.98
2022-08-05T12:39:34.312Z,25.03
2022-08-05T12:42:10.065Z,25.41
2022-08-05T12:44:44.331Z,25.31
2022-08-05T12:47:12.863Z,25.46
2022-08-05T12:50:03.538Z,25.39
2022-08-05T12:52:39.443Z,24.99
2022-08-05T12:55:22.973Z,25.22
2022-08-05T12:58:50.348Z,25.59
2022-08-05T13:02:03.551Z,25.80
2022-08-05T13:03:32.003Z,25.48
2022-08-05T13:06:07.572Z,25.19
2022-08-05T13:08:39.922Z,25.25
2022-08-05T13:11:08.002Z,25.10
2022-08-05T13:14:06.170Z,25.09
2022-08-05T13:16:28.023Z,25.13
2022-08-05T13:18:58.885Z,25.17
2022-08-05T13:21:37.881Z,25.13
2022-08-05T13:24:51.000Z,24.99
2022-08-05T13:27:04.757Z,24.77
2022-08-05T13:29:37.507Z,24.63
2022-08-05T13:32:06.379Z,24.50
2022-08-05T13:34:34.655Z,24.41
2022-08-05T13:37:07.083Z,24.44
2022-08-05T13:40:15.766Z,24.57
2022-08-05T13:42:23.411Z,24.60
2022-08-05T13:44:54.130Z,24.95
2022-08-05T13:47:34.831Z,25.40
2022-08-05T13:50:08.518Z,25.63
2022-08-05T13:52:41.177Z,25.71
2022-08-05T13:55:09.739Z,25.58
2022-08-05T13:57:51.463Z,25.19
2022-08-05T14:00:26.802Z,24.97
2022-08-05T14:02:55.966Z,25.00
2022-08-05T14:05:29.247Z,24.78
2022-08-05T14:08:03.217Z,24.65
2022-08-05T14:10:37.378Z,24.65
2022-08-05T14:13:05.795Z,24.55
2022-08-05T14:16:08.020Z,24.43
2022-08-05T14:18:23.342Z,24.52
2022-08-05T14:20:54.595Z,24.24
2022-08-05T14:23:26.206Z,24.23
2022-08-05T14:25:58.135Z,24.15
2022-08-05T14:28:28.099Z,24.07
2022-08-05T14:30:55.917Z,23.95
2022-08-05T14:33:24.049Z,23.95
2022-08-05T14:35:53.956Z,23.82
2022-08-05T14:38:31.906Z,23.76
2022-08-05T14:41:05.724Z,23.92
2022-08-05T14:43:58.953Z,23.97
2022-08-05T14:46:21.932Z,24.02
2022-08-05T14:48:50.173Z,23.98
2022-08-05T14:51:17.879Z,24.08
2022-08-05T14:54:26.843Z,24.09
2022-08-05T14:56:34.725Z,24.18
2022-08-05T14:59:05.706Z,24.26
2022-08-05T15:01:47.220Z,24.23
2022-08-05T15:04:17.343Z,24.39
2022-08-05T15:06:49.244Z,24.56
2022-08-05T15:09:52.587Z,24.64
2022-08-05T15:12:09.065Z,24.92
2022-08-05T15:14:48.050Z,24.90
2022-08-05T15:17:46.953Z,25.11
2022-08-05T15:20:09.744Z,25.24
2022-08-05T15:22:43.124Z,25.14
2022-08-05T15:25:14.671Z,25.09
2022-08-05T15:27:51.933Z,24.84
2022-08-05T15:30:20.013Z,24.97
2022-08-05T15:32:47.735Z,25.03
2022-08-05T15:35:15.270Z,25.12
2022-08-05T15:38:32.988Z,25.34
2022-08-05T15:41:01.804Z,25.23
2022-08-05T15:43:21.514Z,24.90
2022-08-05T15:46:00.525Z,25.02
2022-08-05T15:48:29.828Z,25.21
2022-08-05T15:50:57.505Z,25.25
2022-08-05T15:53:26.323Z,25.15
2022-08-05T15:56:03.778Z,25.34
2022-08-05T15:58:36.951Z,25.44
2022-08-05T16:01:16.025Z,25.43
2022-08-05T16:03:50.286Z,25.47
2022-08-05T16:06:20.892Z,25.52
2022-08-05T16:08:53.784Z,25.66
2022-08-05T16:11:42.366Z,25.46
2022-08-05T16:14:17.273Z,25.43
2022-08-05T16:16:45.968Z,25.41
2022-08-05T16:19:25.483Z,25.41
2022-08-05T16:22:02.922Z,25.41
2022-08-05T16:24:40.288Z,25.18
2022-08-05T16:27:16.148Z,24.93
2022-08-05T16:29:50.226Z,24.77
2022-08-05T16:32:28.419Z,24.44
2022-08-05T16:34:57.300Z,24.17
2022-08-05T16:38:15.022Z,24.14
2022-08-05T16:40:26.507Z,24.26
2022-08-05T16:42:58.338Z,24.04
2022-08-05T16:46:06.487Z,24.03
2022-08-05T16:48:25.737Z,23.88
2022-08-05T16:50:54.057Z,23.94
2022-08-05T16:53:32.012Z,23.78
2022-08-05T16:56:10.325Z,23.63
2022-08-05T16:58:41.638Z,23.39
2022-08-05T17:01:09.453Z,23.54
2022-08-05T17:03:38.862Z,23.67
2022-08-05T17:06:07.131Z,23.80
2022-08-05T17:08:51.876Z,23.89
2022-08-05T17:11:23.719Z,23.91
2022-08-05T17:14:05.404Z,24.40
2022-08-05T17:16:36.667Z,24.72
2022-08-05T17:19:07.510Z,24.61
2022-08-05T17:21:39.762Z,24.49
2022-08-05T17:24:30.278Z,24.28
2022-08-05T17:26:59.471Z,24.38
2022-08-05T17:29:33.813Z,24.12
2022-08-05T17:32:11.191Z,23.89
2022-08-05T17:34:39.697Z,23.94
2022-08-05T17:37:29.394Z,23.87
2022-08-05T17:39:56.011Z,23.66
2022-08-05T17:42:29.915Z,23.49
2022-08-05T17:45:09.800Z,23.58
2022-08-05T17:47:51.375Z,23.56
2022-08-05T17:50:27.693Z,23.59
2022-08-05T17:52:58.749Z,23.71
2022-08-05T17:55:34.080Z,23.52
2022-08-05T17:58:02.631Z,23.44
2022-08-05T18:00:32.710Z,23.44
2022-08-05T18:03:00.232Z,23.51
2022-08-05T18:05:28.362Z,23.43
2022-08-05T18:08:03.587Z,23.16
2022-08-05T18:10:33.433Z,23.01
2022-08-05T18:13:01.883Z,22.99
2022-08-05T18:15:34.316Z,23.07
2022-08-05T18:18:05.551Z,23.03
2022-08-05T18:20:38.785Z,23.03
2022-08-05T18:23:09.008Z,22.78
2022-08-05T18:25:39.497Z,22.62
2022-08-05T18:28:11.716Z,22.65
2022-08-05T18:30:40.616Z,22.60
2022-08-05T18:33:08.510Z,22.66
2022-08-05T18:36:01.006Z,22.66
2022-08-05T18:38:30.594Z,22.54
2022-08-05T18:41:57.226Z,22.53
2022-08-05T18:43:49.134Z,22.56
2022-08-05T18:46:20.088Z,22.52
2022-08-05T18:48:47.943Z,22.40
2022-08-05T18:52:05.769Z,22.39
2022-08-05T18:54:25.137Z,22.35
2022-08-05T18:56:52.745Z,22.28
2022-08-05T18:59:43.495Z,22.18
2022-08-05T19:02:27.524Z,22.25
2022-08-05T19:05:02.073Z,21.94
2022-08-05T19:07:47.664Z,21.88
2022-08-05T19:10:15.371Z,21.90
2022-08-05T19:12:43.436Z,21.70
2022-08-05T19:15:58.138Z,21.66
2022-08-05T19:18:09.151Z,21.57
2022-08-05T19:20:41.826Z,21.49
2022-08-05T19:24:03.879Z,21.47
2022-08-05T19:26:03.111Z,21.46
2022-08-05T19:28:31.269Z,21.47
2022-08-05T19:31:04.843Z,21.38
2022-08-05T19:33:36.874Z,21.32
2022-08-05T19:36:06.591Z,21.28
2022-08-05T19:38:35.652Z,21.23
2022-08-05T19:41:06.662Z,21.26
2022-08-05T19:44:06.461Z,21.08
2022-08-05T19:46:29.428Z,21.07
2022-08-05T19:49:03.199Z,20.95
2022-08-05T19:52:08.461Z,20.89
2022-08-05T19:54:27.000Z,20.77
2022-08-05T19:56:59.152Z,20.57
2022-08-05T19:59:55.504Z,20.32
2022-08-05T20:02:17.454Z,20.13
2022-08-05T20:04:48.472Z,20.11
2022-08-05T20:07:46.205Z,19.92
2022-08-05T20:10:08.275Z,19.82
2022-08-05T20:12:48.042Z,19.80
2022-08-05T20:15:48.603Z,19.94
2022-08-05T20:18:10.505Z,19.82
2022-08-05T20:20:56.233Z,20.00
2022-08-05T20:23:39.726Z,20.04
2022-08-05T20:26:16.097Z,20.06
2022-08-05T20:28:44.967Z,20.14
2022-08-05T20:31:12.611Z,20.28
2022-08-05T20:33:42.583Z,20.27
2022-08-05T20:36:12.044Z,20.29
2022-08-05T20:38:54.114Z,20.26
2022-08-05T20:41:44.278Z,20.23
2022-08-05T20:44:18.863Z,20.21
2022-08-05T20:46:58.144Z,20.13
2022-08-05T20:49:26.100Z,19.94
2022-08-05T20:51:55.867Z,19.85
2022-08-05T20:54:26.931Z,19.85
2022-08-05T20:57:14.614Z,19.68
2022-08-05T21:00:19.729Z,19.38
2022-08-05T21:02:48.775Z,19.39
2022-08-05T21:05:19.608Z,19.35
2022-08-05T21:07:52.286Z,19.33
2022-08-05T21:10:20.555Z,19.17
2022-08-05T21:12:55.528Z,19.09
2022-08-05T21:15:26.202Z,19.19
2022-08-05T21:18:01.901Z,19.10
2022-08-05T21:20:33.550Z,19.18
2022-08-05T21:23:03.269Z,19.07
2022-08-05T21:25:34.099Z,19.08
2022-08-05T21:28:02.930Z,19.01
2022-08-05T21:30:31.316Z,19.01
2022-08-05T21:32:59.705Z,18.96
2022-08-05T21:35:55.598Z,18.97
2022-08-05T21:38:19.113Z,18.97
2022-08-05T21:40:46.720Z,19.05
2022-08-05T21:43:24.025Z,19.01
2022-08-05T21:45:57.490Z,19.15
2022-08-05T21:48:28.128Z,19.22
2022-08-05T21:50:56.125Z,19.24
2022-08-05T21:53:27.573Z,19.26
2022-08-05T21:56:05.570Z,19.17
2022-08-05T21:58:42.229Z,19.23
2022-08-05T22:01:10.946Z,19.20
2022-08-05T22:03:52.049Z,19.08
2022-08-05T22:06:33.508Z,19.23
2022-08-05T22:09:05.226Z,19.14
2022-08-05T22:11:42.413Z,19.17
2022-08-05T22:14:35.359Z,19.22
2022-08-05T22:17:03.826Z,19.10
2022-08-05T22:20:01.441Z,19.12
2022-08-05T22:22:27.640Z,19.26
2022-08-05T22:25:27.253Z,19.09
2022-08-05T22:28:08.250Z,19.08
2022-08-05T22:30:55.770Z,18.97
2022-08-05T22:33:58.308Z,18.99
2022-08-05T22:36:14.366Z,18.83
2022-08-05T22:38:42.882Z,18.62
2022-08-05T22:41:12.116Z,18.61
2022-08-05T22:43:42.898Z,18.26
2022-08-05T22:46:13.510Z,18.23
2022-08-05T22:48:51.325Z,17.99
2022-08-05T22:51:23.131Z,17.83
2022-08-05T22:54:06.929Z,17.72
2022-08-05T22:56:36.188Z,17.59
2022-08-05T22:59:44.008Z,17.50
2022-08-05T23:02:05.726Z,17.38
2022-08-05T23:04:35.618Z,17.33
2022-08-05T23:07:03.667Z,17.04
2022-08-05T23:09:57.493Z,17.00
2022-08-05T23:12:23.859Z,16.95
2022-08-05T23:14:52.318Z,16.94
2022-08-05T23:17:34.466Z,16.76
2022-08-05T23:20:10.238Z,16.54
2022-08-05T23:22:47.193Z,16.52
2022-08-05T23:25:16.994Z,16.40
2022-08-05T23:28:00.395Z,16.29
2022-08-05T23:30:29.175Z,16.17
2022-08-05T23:32:59.124Z,16.12
2022-08-05T23:35:28.536Z,16.03
2022-08-05T23:38:02.277Z,15.99
2022-08-05T23:40:32.029Z,15.84
2022-08-05T23:43:24.328Z,15.64
2022-08-05T23:45:50.844Z,15.77
2022-08-05T23:48:18.484Z,15.98
2022-08-05T23:50:47.323Z,16.09
2022-08-05T23:53:22.964Z,16.13
2022-08-05T23:55:50.849Z,16.11
2022-08-05T23:58:32.022Z,16.15
